This is the latest recevied weather packets stored in our database for station/object W4TBD-13. If no packets are shown the sender has not sent any weather packets the latest 10 day(s).
| Time | Temp. | Humidity | Pressure | Rain* | Wind** | Luminosity | Snow |
|---|---|---|---|---|---|---|---|
| 1777899006 | 14.44° C | 58% | 1006.4 hPa | 0 mm | - | 292 W/m² | - |
| 1777898405 | 13.33° C | 61% | 1006.4 hPa | 0 mm | - | 270 W/m² | - |
| 1777895406 | 10° C | 73% | 1006.7 hPa | 0 mm | - | 32 W/m² | - |
| 1777895106 | 9.44° C | 74% | 1006.6 hPa | 0 mm | - | 31 W/m² | - |
| 1777894205 | 9.44° C | 73% | 1006.7 hPa | 0 mm | - | 10 W/m² | - |
| 1777893906 | 9.44° C | 73% | 1006.6 hPa | 0 mm | - | 23 W/m² | - |
| 1777893005 | 8.89° C | 73% | 1006.4 hPa | 0 mm | - | 19 W/m² | - |
| 1777891505 | 8.89° C | 74% | 1006.8 hPa | 0 mm | - | 9 W/m² | - |
| 1777888805 | 10° C | 66% | 1006.3 hPa | 0 mm | - | 0 W/m² | - |
| 1777887905 | 10° C | 66% | 1006.2 hPa | 0 mm | - | 0 W/m² | - |
| 1777886407 | 10.56° C | 63% | 1006.6 hPa | 0 mm | - | 0 W/m² | - |
| 1777884305 | 11.11° C | 59% | 1006.6 hPa | 0 mm | - | 0 W/m² | - |
| 1777882206 | 11.11° C | 59% | 1006.8 hPa | 0 mm | - | 0 W/m² | - |
| 1777881605 | 10.56° C | 58% | 1006.8 hPa | 0 mm | - | 0 W/m² | - |
| 1777881305 | 10.56° C | 59% | 1007 hPa | 0 mm | - | 0 W/m² | - |
| 1777879805 | 10.56° C | 58% | 1006.5 hPa | 0 mm | - | 0 W/m² | - |
| 1777879506 | 10.56° C | 59% | 1006.5 hPa | 0 mm | - | 0 W/m² | - |
| 1777874104 | 8.33° C | 72% | 1006.6 hPa | 0 mm | - | 0 W/m² | - |
| 1777873805 | 8.33° C | 73% | 1006.6 hPa | 0 mm | - | 0 W/m² | - |
| 1777872605 | 8.89° C | 72% | 1006.8 hPa | 0 mm | - | 0 W/m² | - |
| 1777864505 | 9.44° C | 72% | 1006.6 hPa | 0 mm | - | 0 W/m² | - |
| 1777861504 | 10.56° C | 70% | 1006.5 hPa | 0 mm | - | 0 W/m² | - |
| 1777861205 | 10.56° C | 70% | 1006.5 hPa | 0 mm | - | 0 W/m² | - |
| 1777857604 | 12.22° C | 62% | 1006.2 hPa | 0 mm | - | 0 W/m² | - |
| 1777857306 | 12.22° C | 61% | 1005.9 hPa | 0 mm | - | 0 W/m² | - |
* Rain latest hour (hover to see other rain measurements)
** Current wind speed in m/s (hover to see current wind gust speed)